Flight Track Log - Related Links

Times and Time Zones

All times are in EDT time to prevent confusion due to time zone crossing. See the N534QS flight status page for this flight to view local times or setup timezone preferences in your user account.

Time Position Orientation Groundspeed Altitude Reporting Facility
EDT Latitude Longitude Course Direction KTS MPH feet Rate Location/Type
Wed 08:04:35 AM 41.0500 -73.7000 236° Southwest 178 205 1,400  Level New York TRACON
Wed 08:05:35 AM 41.0333 -73.7333 236° Southwest 213 245 3,000 2,100 Climbing New York TRACON
Wed 08:06:35 AM 41.0833 -73.8000 315° West 264 304 5,600 2,508 Climbing New York TRACON
Wed 08:08:44 AM 41.1961 -73.7808 North 244 281 10,900 1,841 Climbing Boston Center
Wed 08:09:44 AM 41.2456 -73.6575 62° Northeast 263 303 11,400 1,650 Climbing Boston Center
Wed 08:10:44 AM 41.2781 -73.5228 72° East 337 388 14,200 3,000 Climbing Boston Center
Wed 08:11:44 AM 41.3192 -73.3714 70° East 364 419 17,400 2,650 Climbing Boston Center
Wed 08:12:44 AM 41.3578 -73.2339 69° East 395 455 19,500 2,300 Climbing Boston Center
Wed 08:13:44 AM 41.4044 -73.0933 66° East 409 471 22,000 2,200 Climbing Boston Center
Wed 08:14:44 AM 41.4633 -72.9553 60° Northeast 409 471 23,900 1,900 Climbing Boston Center
Wed 08:15:44 AM 41.5183 -72.8144 62° Northeast 422 486 25,800 1,900 Climbing Boston Center
Wed 08:16:44 AM 41.5769 -72.6647 62° Northeast 433 498 27,700 1,800 Climbing Boston Center
Wed 08:17:44 AM 41.6356 -72.5067 64° Northeast 446 513 29,400 1,500 Climbing Boston Center
Wed 08:18:44 AM 41.6958 -72.3483 63° Northeast 458 527 30,700 1,300 Climbing Boston Center
Wed 08:19:44 AM 41.7583 -72.1869 63° Northeast 468 539 32,000 1,450 Climbing Boston Center
Wed 08:20:44 AM 41.8203 -72.0222 63° Northeast 482 555 33,600 1,700 Climbing Boston Center
Wed 08:21:44 AM 41.8842 -71.8600 62° Northeast 482 555 35,400 1,700 Climbing Boston Center
Wed 08:22:44 AM 41.9436 -71.6978 64° Northeast 482 555 37,000 1,300 Climbing Boston Center
Wed 08:23:44 AM 42.0069 -71.5378 62° Northeast 482 555 38,000 1,400 Climbing Boston Center
Wed 08:24:44 AM 42.0683 -71.3803 62° Northeast 482 555 39,800 1,200 Climbing Boston Center
Wed 08:25:44 AM 42.1272 -71.2225 63° Northeast 471 542 40,400 400 Climbing Boston Center
Wed 08:26:44 AM 42.1856 -71.0589 64° Northeast 471 542 40,600 300 Climbing Boston Center
Wed 08:27:44 AM 42.2481 -70.8919 63° Northeast 476 548 41,000 200 Climbing Boston Center
Wed 08:28:44 AM 42.3039 -70.7219 66° East 481 554 41,000  Level Boston Center
Wed 08:29:44 AM 42.3639 -70.5519 64° Northeast 486 559 41,000  Level Boston Center
Wed 08:30:44 AM 42.4233 -70.3842 64° Northeast 486 559 41,000  Level Boston Center
Wed 08:31:44 AM 42.4850 -70.2158 64° Northeast 486 559 41,000  Level Boston Center
Wed 08:32:44 AM 42.5419 -70.0475 65° Northeast 486 559 41,000  Level Boston Center
Wed 08:33:44 AM 42.6069 -69.8758 63° Northeast 491 565 41,000  Level Boston Center
Wed 08:34:44 AM 42.6633 -69.7039 66° East 491 565 41,000  Level Boston Center
Wed 08:35:44 AM 42.7258 -69.5317 64° Northeast 491 565 41,000  Level Boston Center
Wed 08:36:44 AM 42.7900 -69.3531 64° Northeast 499 574 41,000  Level Boston Center
Wed 08:37:15 AM 42.7833 -69.2667 96° East 510 587 41,000  Level Moncton Center
Wed 08:38:15 AM 42.8667 -69.0833 58° Northeast 510 587 41,000  Level Moncton Center
Wed 08:38:44 AM 42.9050 -69.0044 56° Northeast 509 586 41,000  Level Boston Center
Wed 08:39:44 AM 42.9661 -68.8250 65° Northeast 509 586 41,000  Level Boston Center
Wed 08:40:15 AM 42.9833 -68.7333 76° East 510 587 41,000  Level Moncton Center
Wed 08:41:15 AM 43.0333 -68.5833 65° Northeast 510 587 41,000  Level Moncton Center
Wed 08:41:44 AM 43.0783 -68.4969 54° Northeast 503 579 41,000  Level Boston Center
Wed 08:42:44 AM 43.1350 -68.3281 65° Northeast 497 572 41,000  Level Boston Center
Wed 08:43:44 AM 43.1931 -68.1533 65° Northeast 497 572 41,000  Level Boston Center
Wed 08:44:44 AM 43.2511 -67.9781 65° Northeast 497 572 41,000  Level Boston Center
Wed 08:45:15 AM 43.2667 -67.8667 79° East 500 575 41,000  Level Moncton Center
Wed 08:46:15 AM 43.3333 -67.6833 63° Northeast 510 587 41,000  Level Moncton Center
Wed 08:47:15 AM 43.3833 -67.5167 68° East 510 587 41,000  Level Moncton Center
Wed 08:47:44 AM 43.4136 -67.4714 47° Northeast 503 579 41,000  Level Boston Center
Wed 08:48:44 AM 43.4833 -67.2594 66° East 508 585 41,000  Level Boston Center
Wed 08:49:44 AM 43.5397 -67.0769 67° East 508 585 41,000  Level Boston Center
Wed 08:50:15 AM 43.5667 -66.9500 74° East 510 587 41,000  Level Moncton Center
Wed 08:51:15 AM 43.6667 -66.8000 47° Northeast 510 587 41,000  Level Moncton Center
Wed 08:52:15 AM 43.7333 -66.6333 61° Northeast 510 587 41,000  Level Moncton Center
Wed 08:53:15 AM 43.8167 -66.4833 52° Northeast 500 575 41,000  Level Moncton Center
Wed 08:54:15 AM 43.9000 -66.3167 55° Northeast 510 587 41,000  Level Moncton Center
Wed 08:55:15 AM 43.9833 -66.1667 52° Northeast 510 587 41,000  Level Moncton Center
Wed 08:56:15 AM 44.0500 -66.0000 61° Northeast 510 587 41,000  Level Moncton Center
Wed 08:57:15 AM 44.1500 -65.8333 50° Northeast 510 587 41,000  Level Moncton Center
Wed 08:58:15 AM 44.2333 -65.6833 52° Northeast 510 587 41,000  Level Moncton Center
Wed 08:59:15 AM 44.3167 -65.5167 55° Northeast 510 587 41,000  Level Moncton Center
Wed 09:00:15 AM 44.4000 -65.3500 55° Northeast 510 587 41,000  Level Moncton Center
Wed 09:01:15 AM 44.4833 -65.2000 52° Northeast 510 587 41,000  Level Moncton Center
Wed 09:02:15 AM 44.5500 -65.0333 61° Northeast 520 598 41,000  Level Moncton Center
Wed 09:03:15 AM 44.6333 -64.8667 55° Northeast 520 598 41,000  Level Moncton Center
Wed 09:04:15 AM 44.7167 -64.7000 55° Northeast 520 598 41,000  Level Moncton Center
Wed 09:05:15 AM 44.8000 -64.5167 57° Northeast 520 598 41,000  Level Moncton Center
Wed 09:06:15 AM 44.8833 -64.3500 55° Northeast 520 598 41,000  Level Moncton Center
Wed 09:07:15 AM 44.9667 -64.1833 55° Northeast 520 598 41,000  Level Moncton Center
Wed 09:08:15 AM 45.0333 -64.0167 60° Northeast 520 598 41,000  Level Moncton Center
Wed 09:09:15 AM 45.1333 -63.8333 52° Northeast 520 598 41,000  Level Moncton Center
Wed 09:10:15 AM 45.2000 -63.6667 60° Northeast 520 598 41,000  Level Moncton Center
Wed 09:11:15 AM 45.2833 -63.5000 55° Northeast 520 598 41,000  Level Moncton Center
Wed 09:12:15 AM 45.3667 -63.3333 55° Northeast 520 598 41,000  Level Moncton Center
Wed 09:13:15 AM 45.4500 -63.1500 57° Northeast 520 598 41,000  Level Moncton Center
Wed 09:14:15 AM 45.5333 -62.9833 54° Northeast 520 598 41,000  Level Moncton Center
Wed 09:15:15 AM 45.6167 -62.8167 54° Northeast 520 598 41,000  Level Moncton Center
Wed 09:16:15 AM 45.7000 -62.6167 59° Northeast 520 598 41,000  Level Moncton Center
Wed 09:17:15 AM 45.7833 -62.4500 54° Northeast 520 598 41,000  Level Moncton Center
Wed 09:18:15 AM 45.8333 -62.2833 67° East 520 598 41,000  Level Moncton Center
Wed 09:19:15 AM 45.9333 -62.1167 49° Northeast 520 598 41,000  Level Moncton Center
Wed 09:20:15 AM 46.0000 -61.9333 62° Northeast 520 598 41,000  Level Moncton Center
Wed 09:21:15 AM 46.0833 -61.7667 54° Northeast 510 587 41,000  Level Moncton Center
Wed 09:22:15 AM 46.1667 -61.6000 54° Northeast 510 587 41,000  Level Moncton Center
Wed 09:23:15 AM 46.2333 -61.4000 64° Northeast 520 598 41,000  Level Moncton Center
Wed 09:24:15 AM 46.3167 -61.2167 57° Northeast 520 598 41,000  Level Moncton Center
Wed 09:25:15 AM 46.4000 -61.0500 54° Northeast 520 598 41,000  Level Moncton Center
Wed 09:26:15 AM 46.4667 -60.8667 62° Northeast 520 598 41,000  Level Moncton Center
Wed 09:27:15 AM 46.5333 -60.7000 60° Northeast 520 598 41,000  Level Moncton Center
Wed 09:28:01 AM 46.6167 -60.5500 51° Northeast 530 610 41,000  Level Gander Center
Wed 09:29:01 AM 46.6667 -60.3833 66° East 530 610 41,000  Level Gander Center
Wed 09:30:15 AM 46.7667 -60.1500 58° Northeast 530 610 41,000  Level Moncton Center
Wed 09:31:15 AM 46.8500 -59.9667 56° Northeast 520 598 41,000  Level Moncton Center
Wed 09:32:15 AM 46.9167 -59.7833 62° Northeast 520 598 41,000  Level Moncton Center
Wed 09:33:15 AM 47.0000 -59.5833 59° Northeast 530 610 41,000  Level Moncton Center
Wed 09:34:15 AM 47.0667 -59.4000 62° Northeast 530 610 41,000  Level Moncton Center
Wed 09:35:15 AM 47.1500 -59.2333 54° Northeast 520 598 41,000  Level Moncton Center
Wed 09:36:15 AM 47.2167 -59.0500 62° Northeast 520 598 41,000  Level Moncton Center
Wed 09:37:15 AM 47.3000 -58.8667 56° Northeast 530 610 41,000  Level Moncton Center
Wed 09:38:15 AM 47.3667 -58.6667 64° Northeast 530 610 41,000  Level Moncton Center
Wed 09:39:15 AM 47.4500 -58.4833 56° Northeast 520 598 41,000  Level Moncton Center
Wed 09:40:15 AM 47.5167 -58.2667 65° Northeast 540 621 41,000  Level Moncton Center
Wed 09:41:15 AM 47.6000 -58.0833 56° Northeast 540 621 41,000  Level Moncton Center
Wed 09:42:15 AM 47.6667 -57.8833 64° Northeast 540 621 41,000  Level Moncton Center
Wed 09:43:01 AM 47.7167 -57.7500 61° Northeast 540 621 41,000  Level Gander Center
Wed 09:44:15 AM 47.8167 -57.5167 57° Northeast 530 610 41,000  Level Moncton Center
Wed 09:45:15 AM 47.8833 -57.3333 61° Northeast 530 610 41,000  Level Moncton Center
Wed 09:46:15 AM 47.9500 -57.1167 65° Northeast 530 610 41,000  Level Moncton Center
Wed 09:47:15 AM 48.0167 -56.9333 61° Northeast 530 610 41,000  Level Moncton Center
Wed 09:48:01 AM 48.0500 -56.7833 72° East 530 610 41,000  Level Gander Center
Wed 09:49:01 AM 48.1333 -56.5667 60° Northeast 530 610 41,000  Level Gander Center
Wed 09:50:01 AM 48.1833 -56.3667 69° East 530 610 41,000  Level Gander Center
Wed 09:51:01 AM 48.2500 -56.1833 61° Northeast 520 598 41,000  Level Gander Center
Wed 09:52:01 AM 48.3000 -55.9833 69° East 530 610 41,000  Level Gander Center
Wed 09:53:15 AM 48.4000 -55.7333 59° Northeast 510 587 41,000  Level Moncton Center
Wed 09:54:15 AM 48.4500 -55.5500 68° East 500 575 41,000  Level Moncton Center
Wed 09:55:01 AM 48.5000 -55.4000 63° Northeast 500 575 41,000  Level Gander Center
Wed 09:56:01 AM 48.5500 -55.2167 68° East 500 575 41,000  Level Gander Center
Wed 09:57:01 AM 48.6167 -55.0333 61° Northeast 490 564 41,000  Level Gander Center
Wed 09:58:01 AM 48.6667 -54.8167 71° East 490 564 41,000  Level Gander Center
Wed 09:59:01 AM 48.7167 -54.6667 63° Northeast 490 564 41,000  Level Gander Center
Wed 10:00:01 AM 48.7833 -54.4500 65° Northeast 490 564 41,000  Level Gander Center
Wed 10:01:01 AM 48.8333 -54.2667 67° East 490 564 41,000  Level Gander Center
Wed 10:02:01 AM 48.8833 -54.0833 67° East 480 552 41,000  Level Gander Center
Wed 10:03:01 AM 48.9333 -53.9000 67° East 480 552 41,000  Level Gander Center
Wed 10:04:01 AM 49.0000 -53.7000 63° Northeast 480 552 41,000  Level Gander Center
Wed 10:05:01 AM 49.0333 -53.5167 74° East 480 552 41,000  Level Gander Center
Wed 10:06:01 AM 49.1000 -53.3333 61° Northeast 480 552 41,000  Level Gander Center
Wed 10:06:21 AM 49.1167 -53.2833 63° Northeast 480 552 41,000  Level Gander Center
Wed 10:07:01 AM 49.1500 -53.1500 69° East 490 564 41,000  Level Gander Center
Wed 10:07:21 AM 49.1667 -53.0833 69° East 490 564 41,000  Level Gander Center
Wed 10:08:21 AM 49.2167 -52.8833 69° East 490 564 41,000  Level Gander Center
Wed 10:09:21 AM 49.2833 -52.7167 58° Northeast 490 564 41,000  Level Gander Center
Wed 10:10:15 AM 49.3167 -52.5333 74° East 490 564 41,000  Level Moncton Center
Wed 10:11:15 AM 49.3667 -52.3333 69° East 490 564 41,000  Level Moncton Center
Wed 10:12:01 AM 49.4000 -52.2000 69° East 490 564 41,000  Level Gander Center
Wed 10:12:21 AM 49.4333 -52.1167 58° Northeast 490 564 41,000  Level Gander Center
Wed 10:13:21 AM 49.4833 -51.9167 69° East 490 564 41,000  Level Gander Center
Wed 10:14:01 AM 49.5000 -51.7833 79° East 490 564 41,000  Level Gander Center
Wed 10:15:01 AM 49.5833 -51.6000 55° Northeast 500 575 41,000  Level Gander Center
Wed 10:15:21 AM 49.5833 -51.5167 90° East 500 575 41,000  Level Gander Center
Wed 10:16:01 AM 49.6333 -51.4000 56° Northeast 500 575 41,000  Level Gander Center
Wed 10:17:01 AM 49.6833 -51.2167 67° East 500 575 41,000  Level Gander Center
Wed 10:18:01 AM 49.7167 -51.0000 77° East 500 575 41,000  Level Gander Center
Wed 10:19:01 AM 49.7667 -50.8000 69° East 500 575 41,000  Level Gander Center
Wed 10:20:15 AM 49.8333 -50.5500 67° East 500 575 41,000  Level Moncton Center
Wed 10:21:15 AM 49.8833 -50.3333 70° East 500 575 41,000  Level Moncton Center
Wed 10:22:01 AM 49.9167 -50.2000 69° East 500 575 41,000  Level Gander Center
Wed 10:23:01 AM 49.9667 -50.0000 69° East 500 575 41,000  Level Gander Center
Wed 10:24:01 AM 50.0333 -49.8000 63° Northeast 500 575 41,000  Level Gander Center
Wed 10:25:01 AM 50.1167 -49.6000 57° Northeast 510 587 41,000  Level Gander Center
Wed 10:25:21 AM 50.1167 -49.5333 90° East 510 587 41,000  Level Gander Center
Wed 10:26:01 AM 50.1667 -49.4333 52° Northeast 500 575 41,000  Level Gander Center
Wed 10:27:01 AM 50.2333 -49.2167 64° Northeast 510 587 41,000  Level Gander Center
Wed 10:28:01 AM 50.3000 -49.0500 58° Northeast 500 575 41,000  Level Gander Center
Wed 10:28:21 AM 50.3167 -48.9667 73° East 500 575 41,000  Level Gander Center
Wed 10:29:21 AM 50.4000 -48.7833 54° Northeast 510 587 41,000  Level Gander Center
Wed 10:30:01 AM 50.4333 -48.6333 71° East 510 587 41,000  Level Gander Center
Wed 10:31:01 AM 50.5167 -48.4667 52° Northeast 510 587 41,000  Level Gander Center
Wed 10:32:01 AM 50.5667 -48.2500 70° East 500 575 41,000  Level Gander Center
Wed 10:32:21 AM 50.5833 -48.2333 32° Northeast 510 587 41,000  Level Gander Center
Wed 10:34:00 AM 50.6917 -47.9180 61° Northeast  Level FlightAware Approximate
Wed 10:41:00 AM 51.1421 -46.5643 62° Northeast  Level FlightAware Approximate
Wed 10:42:00 AM 51.2051 -46.3687 63° Northeast  Level FlightAware Approximate
Wed 10:43:00 AM 51.2678 -46.1726 63° Northeast  Level FlightAware Approximate
Wed 10:44:00 AM 51.3302 -45.9760 63° Northeast  Level FlightAware Approximate
Wed 10:45:00 AM 51.3923 -45.7789 63° Northeast  Level FlightAware Approximate
Wed 10:46:00 AM 51.4540 -45.5812 63° Northeast  Level FlightAware Approximate
Wed 10:47:00 AM 51.5154 -45.3830 63° Northeast  Level FlightAware Approximate
Wed 10:48:00 AM 51.5764 -45.1843 64° Northeast  Level FlightAware Approximate
Wed 10:49:00 AM 51.6371 -44.9850 64° Northeast  Level FlightAware Approximate
Wed 10:50:00 AM 51.6975 -44.7852 64° Northeast  Level FlightAware Approximate
Wed 10:51:00 AM 51.7576 -44.5849 64° Northeast  Level FlightAware Approximate
Wed 10:52:00 AM 51.8173 -44.3840 64° Northeast  Level FlightAware Approximate
Wed 10:53:00 AM 51.8766 -44.1826 64° Northeast  Level FlightAware Approximate
Wed 10:54:00 AM 51.9356 -43.9807 65° Northeast  Level FlightAware Approximate
Wed 10:55:00 AM 51.9943 -43.7782 65° Northeast  Level FlightAware Approximate
Wed 10:56:00 AM 52.0526 -43.5752 65° Northeast  Level FlightAware Approximate
Wed 10:56:00 AM 50.0000 -50.0000 60° Northeast 507 583 41,000  Level ETMS Enhanced Traffic Management System
Wed 10:56:54 AM 50.0000 -50.0000 60° Northeast 507 583 41,000  Level ETMS Enhanced Traffic Management System
Wed 10:57:00 AM 52.1106 -43.3717 65° Northeast  Level FlightAware Approximate
Wed 10:58:00 AM 52.1682 -43.1676 65° Northeast  Level FlightAware Approximate
Wed 10:59:00 AM 52.2255 -42.9631 65° Northeast  Level FlightAware Approximate
Wed 11:00:00 AM 52.2824 -42.7579 66° East  Level FlightAware Approximate
Wed 11:01:00 AM 52.3389 -42.5523 66° East  Level FlightAware Approximate
Wed 11:02:00 AM 52.5143 -41.9351 67° East 507 583 41,000  Level FlightAware Transoceanic
Wed 11:03:00 AM 52.5698 -41.7222 67° East 507 583 41,000  Level FlightAware Transoceanic
Wed 11:04:00 AM 52.6250 -41.5088 67° East 507 583 41,000  Level FlightAware Transoceanic
Wed 11:05:00 AM 52.6797 -41.2949 67° East 507 583 41,000  Level FlightAware Transoceanic
Wed 11:06:00 AM 52.7341 -41.0804 67° East 507 583 41,000  Level FlightAware Transoceanic
Wed 11:07:00 AM 52.7880 -40.8654 68° East 507 583 41,000  Level FlightAware Transoceanic
Wed 11:08:00 AM 52.8416 -40.6498 68° East 507 583 41,000  Level FlightAware Transoceanic
Wed 11:09:00 AM 52.8948 -40.4337 68° East 507 583 41,000  Level FlightAware Transoceanic
Wed 11:10:00 AM 52.9476 -40.2171 68° East 507 583 41,000  Level FlightAware Transoceanic
Wed 11:11:00 AM 52.9989 -40.0046 68° East  Level FlightAware Approximate
Wed 11:12:00 AM 53.0496 -39.7915 68° East  Level FlightAware Approximate
Wed 11:13:00 AM 53.0303 -39.7867 77° East  Level FlightAware Approximate
Wed 11:14:00 AM 53.0616 -39.5634 77° East  Level FlightAware Approximate
Wed 11:14:00 AM 53.0000 -40.0000 76° East 529 609 41,000  Level ETMS Enhanced Traffic Management System
Wed 11:15:00 AM 53.0925 -39.3397 77° East  Level FlightAware Approximate
Wed 11:16:00 AM 53.1229 -39.1158 77° East  Level FlightAware Approximate
Wed 11:17:00 AM 53.1530 -38.8915 77° East  Level FlightAware Approximate
Wed 11:18:00 AM 53.1825 -38.6669 78° East  Level FlightAware Approximate
Wed 11:19:00 AM 53.2117 -38.4420 78° East  Level FlightAware Approximate
Wed 11:20:00 AM 53.2905 -37.8482 78° East 529 609 41,000  Level FlightAware Transoceanic
Wed 11:21:00 AM 53.3203 -37.6073 78° East 529 609 41,000  Level FlightAware Transoceanic
Wed 11:22:00 AM 53.3497 -37.3661 79° East 529 609 41,000  Level FlightAware Transoceanic
Wed 11:23:00 AM 53.3786 -37.1246 79° East 529 609 41,000  Level FlightAware Transoceanic
Wed 11:24:00 AM 53.4070 -36.8828 79° East 529 609 41,000  Level FlightAware Transoceanic
Wed 11:25:00 AM 53.4349 -36.6406 79° East 529 609 41,000  Level FlightAware Transoceanic
Wed 11:26:00 AM 53.4623 -36.3982 79° East 529 609 41,000  Level FlightAware Transoceanic
Wed 11:27:00 AM 53.4893 -36.1554 80° East 529 609 41,000  Level FlightAware Transoceanic
Wed 11:28:00 AM 53.5157 -35.9123 80° East 529 609 41,000  Level FlightAware Transoceanic
Wed 11:29:00 AM 53.5417 -35.6689 80° East 529 609 41,000  Level FlightAware Transoceanic
Wed 11:30:00 AM 53.5671 -35.4252 80° East 529 609 41,000  Level FlightAware Transoceanic
Wed 11:31:00 AM 53.5921 -35.1812 80° East 529 609 41,000  Level FlightAware Transoceanic
Wed 11:32:00 AM 53.6165 -34.9370 81° East 529 609 41,000  Level FlightAware Transoceanic
Wed 11:33:00 AM 53.6405 -34.6924 81° East 529 609 41,000  Level FlightAware Transoceanic
Wed 11:34:00 AM 53.6640 -34.4476 81° East 529 609 41,000  Level FlightAware Transoceanic
Wed 11:35:00 AM 53.6869 -34.2025 81° East 529 609 41,000  Level FlightAware Transoceanic
Wed 11:36:00 AM 53.7094 -33.9571 81° East 529 609 41,000  Level FlightAware Transoceanic
Wed 11:37:00 AM 53.7314 -33.7115 82° East 529 609 41,000  Level FlightAware Transoceanic
Wed 11:38:00 AM 53.7528 -33.4657 82° East 529 609 41,000  Level FlightAware Transoceanic
Wed 11:39:00 AM 53.7738 -33.2196 82° East 529 609 41,000  Level FlightAware Transoceanic
Wed 11:40:00 AM 53.7942 -32.9732 82° East 529 609 41,000  Level FlightAware Transoceanic
Wed 11:41:00 AM 53.8142 -32.7266 82° East 529 609 41,000  Level FlightAware Transoceanic
Wed 11:42:00 AM 53.8336 -32.4798 82° East 529 609 41,000  Level FlightAware Transoceanic
Wed 11:43:00 AM 53.8526 -32.2327 83° East 529 609 41,000  Level FlightAware Transoceanic
Wed 11:44:00 AM 53.8710 -31.9855 83° East 529 609 41,000  Level FlightAware Transoceanic
Wed 11:45:00 AM 53.8889 -31.7380 83° East 529 609 41,000  Level FlightAware Transoceanic
Wed 11:46:00 AM 53.9063 -31.4903 83° East 529 609 41,000  Level FlightAware Transoceanic
Wed 11:47:00 AM 53.9232 -31.2424 83° East 529 609 41,000  Level FlightAware Transoceanic
Wed 11:48:00 AM 53.9396 -30.9943 84° East 529 609 41,000  Level FlightAware Transoceanic
Wed 11:49:00 AM 53.9554 -30.7460 84° East 529 609 41,000  Level FlightAware Transoceanic
Wed 11:50:00 AM 53.9708 -30.4975 84° East 529 609 41,000  Level FlightAware Transoceanic
Wed 11:51:00 AM 53.9857 -30.2488 84° East 529 609 41,000  Level FlightAware Transoceanic
Wed 11:52:00 AM 53.9991 -30.0155 84° East  Level FlightAware Approximate
Wed 11:53:00 AM 54.0122 -29.7820 84° East  Level FlightAware Approximate
Wed 11:54:00 AM 53.9882 -29.7975 96° East  Level FlightAware Approximate
Wed 11:55:00 AM 53.9743 -29.5643 96° East  Level FlightAware Approximate
Wed 11:56:00 AM 53.9598 -29.3313 96° East  Level FlightAware Approximate
Wed 11:57:00 AM 53.9449 -29.0984 96° East  Level FlightAware Approximate
Wed 11:57:00 AM 54.0000 -30.0000 95° East 529 609 41,000  Level ETMS Enhanced Traffic Management System
Wed 11:58:00 AM 53.9296 -28.8657 96° East  Level FlightAware Approximate
Wed 11:59:00 AM 53.9138 -28.6331 96° East  Level FlightAware Approximate
Wed 12:00:00 PM 53.8976 -28.4007 97° East  Level FlightAware Approximate
Wed 12:01:00 PM 53.8809 -28.1685 97° East  Level FlightAware Approximate
Wed 12:02:00 PM 53.8638 -27.9365 97° East  Level FlightAware Approximate
Wed 12:03:00 PM 53.8462 -27.7047 97° East  Level FlightAware Approximate
Wed 12:04:00 PM 53.7942 -27.0268 98° East 529 609 41,000  Level FlightAware Transoceanic
Wed 12:05:00 PM 53.7738 -26.7805 98° East 529 609 41,000  Level FlightAware Transoceanic
Wed 12:06:00 PM 53.7528 -26.5343 98° East 529 609 41,000  Level FlightAware Transoceanic
Wed 12:07:00 PM 53.7314 -26.2885 98° East 529 609 41,000  Level FlightAware Transoceanic
Wed 12:08:00 PM 53.7094 -26.0429 99° East 529 609 41,000  Level FlightAware Transoceanic
Wed 12:09:00 PM 53.6869 -25.7975 99° East 529 609 41,000  Level FlightAware Transoceanic
Wed 12:10:00 PM 53.6640 -25.5524 99° East 529 609 41,000  Level FlightAware Transoceanic
Wed 12:11:00 PM 53.6405 -25.3076 99° East 529 609 41,000  Level FlightAware Transoceanic
Wed 12:12:00 PM 53.6165 -25.0630 99° East 529 609 41,000  Level FlightAware Transoceanic
Wed 12:13:00 PM 53.5921 -24.8188 100° East 529 609 41,000  Level FlightAware Transoceanic
Wed 12:14:00 PM 53.5671 -24.5748 100° East 529 609 41,000  Level FlightAware Transoceanic
Wed 12:15:00 PM 53.5417 -24.3311 100° East 529 609 41,000  Level FlightAware Transoceanic
Wed 12:16:00 PM 53.5157 -24.0877 100° East 529 609 41,000  Level FlightAware Transoceanic
Wed 12:17:00 PM 53.4893 -23.8446 100° East 529 609 41,000  Level FlightAware Transoceanic
Wed 12:18:00 PM 53.4623 -23.6019 101° East 529 609 41,000  Level FlightAware Transoceanic
Wed 12:19:00 PM 53.4349 -23.3594 101° East 529 609 41,000  Level FlightAware Transoceanic
Wed 12:20:00 PM 53.4070 -23.1172 101° East 529 609 41,000  Level FlightAware Transoceanic
Wed 12:21:00 PM 53.3786 -22.8754 101° East 529 609 41,000  Level FlightAware Transoceanic
Wed 12:22:00 PM 53.3497 -22.6339 101° East 529 609 41,000  Level FlightAware Transoceanic
Wed 12:23:00 PM 53.3203 -22.3927 102° East 529 609 41,000  Level FlightAware Transoceanic
Wed 12:24:00 PM 53.2905 -22.1518 102° East 529 609 41,000  Level FlightAware Transoceanic
Wed 12:25:00 PM 53.2601 -21.9113 102° East 529 609 41,000  Level FlightAware Transoceanic
Wed 12:26:00 PM 53.2293 -21.6712 102° East 529 609 41,000  Level FlightAware Transoceanic
Wed 12:27:00 PM 53.1979 -21.4313 102° East 529 609 41,000  Level FlightAware Transoceanic
Wed 12:28:00 PM 53.1661 -21.1919 103° East 529 609 41,000  Level FlightAware Transoceanic
Wed 12:29:00 PM 53.1339 -20.9528 103° East 529 609 41,000  Level FlightAware Transoceanic
Wed 12:30:00 PM 53.1011 -20.7140 103° East 529 609 41,000  Level FlightAware Transoceanic
Wed 12:31:00 PM 53.0679 -20.4756 103° East 529 609 41,000  Level FlightAware Transoceanic
Wed 12:32:00 PM 53.0342 -20.2376 103° East 529 609 41,000 48 Level FlightAware Transoceanic
Wed 12:33:00 PM 53.0021 -20.0148 103° East  Level FlightAware Approximate
Wed 12:34:00 PM 52.9697 -19.7922 104° East  Level FlightAware Approximate
Wed 12:35:00 PM 52.9733 -19.8064 103° East  Level FlightAware Approximate
Wed 12:36:00 PM 52.9422 -19.5834 103° East  Level FlightAware Approximate
Wed 12:37:00 PM 52.9106 -19.3608 103° East  Level FlightAware Approximate
Wed 12:38:00 PM 52.8786 -19.1386 103° East  Level FlightAware Approximate
Wed 12:39:00 PM 52.8462 -18.9166 104° East  Level FlightAware Approximate
Wed 12:40:00 PM 52.8134 -18.6950 104° East  Level FlightAware Approximate
Wed 12:41:00 PM 52.7794 -18.4741 104° East  Level FlightAware Approximate
Wed 12:42:00 PM 52.7450 -18.2535 104° East  Level FlightAware Approximate
Wed 12:43:00 PM 52.7103 -18.0332 105° East  Level FlightAware Approximate
Wed 12:44:00 PM 52.6751 -17.8133 105° East  Level FlightAware Approximate
Wed 12:45:00 PM 52.6395 -17.5937 105° East  Level FlightAware Approximate
Wed 12:46:00 PM 52.6035 -17.3745 105° East  Level FlightAware Approximate
Wed 12:47:00 PM 52.5671 -17.1557 105° East  Level FlightAware Approximate
Wed 12:48:00 PM 52.5303 -16.9372 105° East  Level FlightAware Approximate
Wed 12:49:00 PM 52.4930 -16.7191 106° East  Level FlightAware Approximate
Wed 12:50:00 PM 52.4554 -16.5014 106° East  Level FlightAware Approximate
Wed 12:51:00 PM 52.4174 -16.2840 106° East  Level FlightAware Approximate
Wed 12:52:00 PM 52.3790 -16.0671 106° East  Level FlightAware Approximate
Wed 12:53:00 PM 52.3402 -15.8505 106° East  Level FlightAware Approximate
Wed 12:54:00 PM 52.3010 -15.6342 106° East  Level FlightAware Approximate
Wed 12:55:00 PM 52.2614 -15.4184 107° East  Level FlightAware Approximate
Wed 12:56:00 PM 52.2214 -15.2030 107° East  Level FlightAware Approximate
Wed 12:57:00 PM 52.1810 -14.9879 107° East  Level FlightAware Approximate
Wed 12:58:00 PM 52.1404 -14.7732 107° East  Level FlightAware Approximate
Wed 12:59:00 PM 52.0993 -14.5589 107° East  Level FlightAware Approximate
Wed 01:00:00 PM 52.0578 -14.3450 107° East  Level FlightAware Approximate
Wed 01:01:00 PM 52.0159 -14.1315 108° East  Level FlightAware Approximate
Wed 01:02:00 PM 51.9737 -13.9184 108° East  Level FlightAware Approximate
Wed 01:03:00 PM 51.9310 -13.7056 108° East  Level FlightAware Approximate
Wed 01:04:00 PM 51.8880 -13.4933 108° East  Level FlightAware Approximate
Wed 01:05:00 PM 51.8446 -13.2815 108° East  Level FlightAware Approximate
Wed 01:06:00 PM 51.8008 -13.0700 108° East  Level FlightAware Approximate
Wed 01:07:00 PM 51.7567 -12.8589 109° East  Level FlightAware Approximate
Wed 01:08:00 PM 51.7122 -12.6482 109° East  Level FlightAware Approximate
Wed 01:09:00 PM 51.6673 -12.4380 109° East  Level FlightAware Approximate
Wed 01:10:00 PM 51.6220 -12.2282 109° East  Level FlightAware Approximate
Wed 01:11:00 PM 51.5763 -12.0188 109° East  Level FlightAware Approximate
Wed 01:12:00 PM 51.5303 -11.8098 109° East  Level FlightAware Approximate
Wed 01:13:00 PM 51.4839 -11.6012 110° East  Level FlightAware Approximate
Wed 01:14:00 PM 51.4371 -11.3931 110° East  Level FlightAware Approximate
Wed 01:15:00 PM 51.3900 -11.1854 110° East  Level FlightAware Approximate
Wed 01:16:00 PM 51.3432 -10.9777 110° East  Level FlightAware Approximate
Wed 01:17:00 PM 51.2966 -10.7701 110° East  Level FlightAware Approximate
Wed 01:18:00 PM 51.2496 -10.5629 110° East  Level FlightAware Approximate
Wed 01:19:00 PM 51.2023 -10.3562 110° East  Level FlightAware Approximate
Wed 01:20:00 PM 51.1547 -10.1498 110° East  Level FlightAware Approximate
Wed 01:21:00 PM 51.1067 -9.9439 110° East  Level FlightAware Approximate
Wed 01:22:00 PM 51.0583 -9.7384 110° East  Level FlightAware Approximate
Wed 01:22:51 PM 50.8395 -8.9838 110° East 496 571 43,500  Level FlightAware UK
Wed 01:23:09 PM 50.8243 -8.9204 111° Southeast 498 573 43,500  Level FlightAware UK
Wed 01:23:27 PM 50.8091 -8.8572 111° Southeast 496 571 43,500  Level FlightAware UK
Wed 01:23:45 PM 50.7938 -8.7940 111° Southeast 494 568 43,500  Level FlightAware UK
Wed 01:24:03 PM 50.7784 -8.7306 111° Southeast 496 571 43,500  Level FlightAware UK
Wed 01:24:21 PM 50.7630 -8.6671 111° Southeast 502 578 43,500  Level FlightAware UK
Wed 01:24:39 PM 50.7475 -8.6034 111° Southeast 500 575 43,500  Level FlightAware UK
Wed 01:24:57 PM 50.7318 -8.5397 111° Southeast 502 578 43,500  Level FlightAware UK
Wed 01:25:15 PM 50.7161 -8.4761 111° Southeast 500 575 43,500  Level FlightAware UK
Wed 01:25:33 PM 50.7003 -8.4126 111° Southeast 500 575 43,500  Level FlightAware UK
Wed 01:25:51 PM 50.6844 -8.3492 111° Southeast 500 575 43,500  Level FlightAware UK
Wed 01:26:09 PM 50.6686 -8.2860 112° Southeast 498 573 43,500  Level FlightAware UK
Wed 01:26:27 PM 50.6527 -8.2229 112° Southeast 496 571 43,500  Level FlightAware UK
Wed 01:26:45 PM 50.6369 -8.1599 112° Southeast 500 575 43,500  Level FlightAware UK
Wed 01:27:03 PM 50.6210 -8.0962 111° Southeast 500 575 43,500  Level FlightAware UK
Wed 01:27:21 PM 50.6052 -8.0334 112° Southeast 502 578 43,500  Level FlightAware UK
Wed 01:27:39 PM 50.5892 -7.9708 112° Southeast 504 580 43,500  Level FlightAware UK
Wed 01:27:57 PM 50.5733 -7.9084 112° Southeast 504 580 43,500  Level FlightAware UK
Wed 01:28:15 PM 50.5574 -7.8464 112° Southeast 502 578 43,500  Level FlightAware UK
Wed 01:28:33 PM 50.5414 -7.7848 112° Southeast 498 573 43,500  Level FlightAware UK
Wed 01:28:51 PM 50.5256 -7.7236 112° Southeast 494 568 43,500  Level FlightAware UK
Wed 01:29:09 PM 50.5102 -7.6623 112° Southeast 496 571 43,500  Level FlightAware UK
Wed 01:29:27 PM 50.4949 -7.6012 111° Southeast 496 571 43,500  Level FlightAware UK
Wed 01:29:45 PM 50.4792 -7.5399 112° Southeast 498 573 43,500  Level FlightAware UK
Wed 01:30:03 PM 50.4634 -7.4785 112° Southeast 500 575 43,500  Level FlightAware UK
Wed 01:30:21 PM 50.4474 -7.4170 112° Southeast 502 578 43,500  Level FlightAware UK
Wed 01:30:39 PM 50.4315 -7.3556 112° Southeast 500 575 43,500  Level FlightAware UK
Wed 01:30:57 PM 50.4154 -7.2943 112° Southeast 498 573 43,500  Level FlightAware UK
Wed 01:31:15 PM 50.3994 -7.2330 112° Southeast 500 575 43,500  Level FlightAware UK
Wed 01:31:33 PM 50.3835 -7.1717 112° Southeast 500 575 43,500  Level FlightAware UK
Wed 01:31:51 PM 50.3676 -7.1105 112° Southeast 500 575 43,500  Level FlightAware UK
Wed 01:32:09 PM 50.3514 -7.0493 112° Southeast 500 575 43,500  Level FlightAware UK
Wed 01:32:28 PM 50.3351 -6.9876 113° Southeast 502 578 43,500  Level FlightAware UK
Wed 01:32:46 PM 50.3188 -6.9267 113° Southeast 502 578 43,500  Level FlightAware UK
Wed 01:33:04 PM 50.3027 -6.8659 113° Southeast 500 575 43,500  Level FlightAware UK
Wed 01:33:22 PM 50.2865 -6.8052 113° Southeast 498 573 43,500  Level FlightAware UK
Wed 01:33:40 PM 50.2703 -6.7447 113° Southeast 500 575 43,500  Level FlightAware UK
Wed 01:33:58 PM 50.2542 -6.6842 113° Southeast 498 573 43,500  Level FlightAware UK
Wed 01:34:16 PM 50.2380 -6.6239 113° Southeast 498 573 43,500  Level FlightAware UK
Wed 01:34:34 PM 50.2217 -6.5639 113° Southeast 500 575 43,500  Level FlightAware UK
Wed 01:34:52 PM 50.2055 -6.5042 113° Southeast 498 573 43,500  Level FlightAware UK
Wed 01:35:10 PM 50.1893 -6.4443 113° Southeast 494 568 43,500  Level FlightAware UK
Wed 01:35:28 PM 50.1731 -6.3845 113° Southeast 494 568 43,500  Level FlightAware UK
Wed 01:35:46 PM 50.1570 -6.3243 113° Southeast 496 571 43,500  Level FlightAware UK
Wed 01:36:04 PM 50.1407 -6.2642 113° Southeast 496 571 43,500  Level FlightAware UK
Wed 01:36:22 PM 50.1244 -6.2039 113° Southeast 498 573 43,500  Level FlightAware UK
Wed 01:36:40 PM 50.1080 -6.1435 113° Southeast 496 571 43,500  Level FlightAware UK
Wed 01:36:58 PM 50.0913 -6.0831 113° Southeast 498 573 43,500  Level FlightAware UK
Wed 01:37:16 PM 50.0746 -6.0226 113° Southeast 498 573 43,500  Level FlightAware UK
Wed 01:37:34 PM 50.0578 -5.9621 113° Southeast 496 571 43,500  Level FlightAware UK
Wed 01:37:52 PM 50.0410 -5.9015 113° Southeast 498 573 43,500  Level FlightAware UK
Wed 01:38:10 PM 50.0240 -5.8403 113° Southeast 500 575 43,500  Level FlightAware UK
Wed 01:38:28 PM 50.0071 -5.7796 113° Southeast 504 580 43,500  Level FlightAware UK
Wed 01:38:46 PM 49.9903 -5.7191 113° Southeast 502 578 43,500  Level FlightAware UK
Wed 01:39:04 PM 49.9736 -5.6587 113° Southeast 500 575 43,500  Level FlightAware UK
Wed 01:39:22 PM 49.9567 -5.5986 114° Southeast 502 578 43,500  Level FlightAware UK
Wed 01:39:40 PM 49.9398 -5.5388 114° Southeast 500 575 43,500  Level FlightAware UK
Wed 01:39:58 PM 49.9230 -5.4794 114° Southeast 500 575 43,500  Level FlightAware UK
Wed 01:40:16 PM 49.9063 -5.4202 114° Southeast 498 573 43,500  Level FlightAware UK
Wed 01:40:34 PM 49.8896 -5.3612 114° Southeast 496 571 43,500  Level FlightAware UK
Wed 01:40:52 PM 49.8728 -5.3022 114° Southeast 500 575 43,500  Level FlightAware UK
Wed 01:41:10 PM 49.8561 -5.2430 114° Southeast 500 575 43,500  Level FlightAware UK
Wed 01:41:28 PM 49.8393 -5.1839 114° Southeast 500 575 43,500  Level FlightAware UK
Wed 01:41:46 PM 49.8224 -5.1248 114° Southeast 500 575 43,500  Level FlightAware UK
Wed 01:42:04 PM 49.8054 -5.0658 114° Southeast 498 573 43,500  Level FlightAware UK
Wed 01:42:22 PM 49.7883 -5.0060 114° Southeast 496 571 43,500  Level FlightAware UK
Wed 01:42:40 PM 49.7713 -4.9468 114° Southeast 496 571 43,500  Level FlightAware UK
Wed 01:42:58 PM 49.7543 -4.8882 114° Southeast 498 573 43,500  Level FlightAware UK
Wed 01:43:16 PM 49.7368 -4.8281 114° Southeast 500 575 43,500  Level FlightAware UK
Wed 01:43:34 PM 49.7196 -4.7687 114° Southeast 500 575 43,500  Level FlightAware UK
Wed 01:43:52 PM 49.7024 -4.7092 114° Southeast 500 575 43,500  Level FlightAware UK
Wed 01:44:10 PM 49.6851 -4.6498 114° Southeast 498 573 43,500  Level FlightAware UK
Wed 01:44:28 PM 49.6691 -4.5896 112° Southeast 500 575 43,500  Level FlightAware UK
Wed 01:44:46 PM 49.6603 -4.5259 102° East 502 578 43,500  Level FlightAware UK
Wed 01:45:04 PM 49.6528 -4.4620 100° East 500 575 43,500  Level FlightAware UK
Wed 01:45:22 PM 49.6471 -4.3979 98° East 502 578 43,500  Level FlightAware UK
Wed 01:45:40 PM 49.6410 -4.3342 98° East 502 578 43,500  Level FlightAware UK
Wed 01:45:58 PM 49.6351 -4.2703 98° East 500 575 43,500  Level FlightAware UK
Wed 01:46:16 PM 49.6291 -4.2064 98° East 500 575 43,500  Level FlightAware UK
Wed 01:46:34 PM 49.6230 -4.1426 98° East 500 575 43,500  Level FlightAware UK
Wed 01:46:52 PM 49.6166 -4.0789 99° East 500 575 43,500  Level FlightAware UK
Wed 01:47:10 PM 49.6103 -4.0146 99° East 500 575 43,500  Level FlightAware UK
Wed 01:47:28 PM 49.6040 -3.9510 99° East 498 573 43,500  Level FlightAware UK
Wed 01:47:46 PM 49.5977 -3.8874 99° East 500 575 43,500  Level FlightAware UK
Wed 01:48:04 PM 49.5913 -3.8238 99° East 500 575 43,500  Level FlightAware UK
Wed 01:48:22 PM 49.5848 -3.7595 99° East 498 573 43,500  Level FlightAware UK
Wed 01:48:40 PM 49.5785 -3.6959 99° East 498 573 43,500  Level FlightAware UK
Wed 01:48:58 PM 49.5720 -3.6323 99° East 498 573 43,500  Level FlightAware UK
Wed 01:49:16 PM 49.5654 -3.5692 99° East 498 573 43,500  Level FlightAware UK
Wed 01:49:34 PM 49.5587 -3.5053 99° East 498 573 43,500  Level FlightAware UK
Wed 01:49:52 PM 49.5518 -3.4406 99° East 500 575 43,500  Level FlightAware UK
Wed 01:50:10 PM 49.5451 -3.3765 99° East 498 573 43,500  Level FlightAware UK
Wed 01:50:28 PM 49.5382 -3.3123 99° East 500 575 43,500  Level FlightAware UK
Wed 01:50:46 PM 49.5313 -3.2479 99° East 504 580 43,500  Level FlightAware UK
Wed 01:51:05 PM 49.5245 -3.1830 99° East 502 578 43,500  Level FlightAware UK
Wed 01:51:23 PM 49.5175 -3.1189 99° East 500 575 43,500  Level FlightAware UK
Wed 01:51:59 PM 49.5035 -2.9913 100° East 496 571 43,500  Level FlightAware UK
Wed 01:52:17 PM 49.4964 -2.9271 100° East 494 568 43,500  Level FlightAware UK
Wed 01:52:35 PM 49.4894 -2.8637 100° East 498 573 43,500  Level FlightAware UK
Wed 01:52:53 PM 49.4823 -2.8001 100° East 498 573 43,500  Level FlightAware UK
Wed 01:53:11 PM 49.4750 -2.7364 100° East 500 575 43,500  Level FlightAware UK
Wed 01:53:29 PM 49.4679 -2.6718 100° East 500 575 43,500  Level FlightAware UK
Wed 01:53:47 PM 49.4606 -2.6078 100° East 500 575 43,500  Level FlightAware UK
Wed 01:54:05 PM 49.4533 -2.5438 100° East 500 575 43,500  Level FlightAware UK
Wed 01:54:23 PM 49.4460 -2.4797 100° East 500 575 43,500  Level FlightAware UK
Wed 01:54:41 PM 49.4386 -2.4154 100° East 500 575 43,500  Level FlightAware UK
Wed 01:55:17 PM 49.4237 -2.2870 100° East 498 573 43,500  Level FlightAware UK
Wed 01:55:35 PM 49.4162 -2.2230 100° East 500 575 43,500  Level FlightAware UK
Wed 01:55:53 PM 49.4088 -2.1584 100° East 502 578 43,500  Level FlightAware UK
Wed 01:56:11 PM 49.4013 -2.0942 100° East 498 573 43,500  Level FlightAware UK
Wed 01:56:29 PM 49.3938 -2.0313 100° East 502 578 43,500  Level FlightAware UK
Wed 01:56:47 PM 49.3862 -1.9670 100° East 502 578 43,500  Level FlightAware UK
Wed 01:57:17 PM 49.3733 -1.8608 100° East 502 578 43,500  Level FlightAware UK
Wed 01:57:36 PM 49.3655 -1.7967 101° East 502 578 43,500  Level FlightAware UK
Wed 01:57:53 PM 49.3579 -1.7343 101° East 502 578 43,500  Level FlightAware UK
Wed 01:58:12 PM 49.3504 -1.6707 100° East 498 573 43,500  Level FlightAware UK
Wed 01:58:29 PM 49.3429 -1.6088 101° East 496 571 43,500  Level FlightAware UK
Wed 01:58:48 PM 49.3350 -1.5449 101° East 496 571 43,500  Level FlightAware UK
Wed 01:59:12 PM 49.3247 -1.4613 101° East 500 575 43,500  Level FlightAware UK
Wed 01:59:36 PM 49.3144 -1.3772 101° East 500 575 43,500  Level FlightAware UK
Wed 01:59:54 PM 49.3066 -1.3142 101° East 500 575 43,500  Level FlightAware UK
Wed 02:00:12 PM 49.2987 -1.2510 101° East 502 578 43,500  Level FlightAware UK
Wed 02:00:30 PM 49.2907 -1.1879 101° East 502 578 43,500  Level FlightAware UK
Wed 02:00:48 PM 49.2827 -1.1249 101° East 498 573 43,500  Level FlightAware UK
Wed 02:01:12 PM 49.2719 -1.0404 101° East 498 573 43,500  Level FlightAware UK
Wed 02:01:30 PM 49.2638 -0.9777 101° East 500 575 43,500  Level FlightAware UK
Wed 02:01:48 PM 49.2557 -0.9149 101° East 502 578 43,500  Level FlightAware UK
Wed 02:02:12 PM 49.2449 -0.8314 101° East 502 578 43,500  Level FlightAware UK
Wed 02:02:30 PM 49.2367 -0.7682 101° East 496 571 43,500  Level FlightAware UK
Wed 02:02:48 PM 49.2284 -0.7053 101° East 498 573 43,500  Level FlightAware UK
Wed 02:03:12 PM 49.2178 -0.6229 101° East 498 573 43,500  Level FlightAware UK
Wed 02:03:36 PM 49.2068 -0.5398 101° East 496 571 43,500  Level FlightAware UK
Wed 02:03:54 PM 49.1983 -0.4764 102° East 498 573 43,500  Level FlightAware UK
Wed 02:04:12 PM 49.1899 -0.4136 102° East 498 573 43,500  Level FlightAware UK
Wed 02:05:07 PM 49.1643 -0.2235 102° East 500 575 43,500  Level FlightAware UK
Wed 02:05:37 PM 49.1501 -0.1177 102° East 500 575 43,500  Level FlightAware UK
Wed 02:06:19 PM 49.1297 0.0310 102° East 504 580 43,500  Level FlightAware UK
Wed 02:06:37 PM 49.1210 0.0945 102° East 502 578 43,500  Level FlightAware UK
Wed 02:07:07 PM 49.1064 0.1999 102° East 500 575 43,500  Level FlightAware UK
Wed 02:07:31 PM 49.0946 0.2838 102° East 502 578 43,500  Level FlightAware UK
Wed 02:07:49 PM 49.0857 0.3473 102° East 500 575 43,500  Level FlightAware UK
Wed 02:08:07 PM 49.0770 0.4099 102° East 500 575 43,500  Level FlightAware UK
Wed 02:09:01 PM 49.0502 0.5981 102° East 500 575 43,500  Level FlightAware UK
Wed 02:09:19 PM 49.0411 0.6605 102° East 506 582 43,500  Level FlightAware UK
Wed 02:09:43 PM 49.0290 0.7443 102° East 500 575 43,500  Level FlightAware UK
Wed 02:10:01 PM 49.0201 0.8063 102° East 498 573 43,500  Level FlightAware UK
Wed 02:10:19 PM 49.0112 0.8680 102° East 498 573 43,500  Level FlightAware UK
Wed 02:10:37 PM 49.0023 0.9299 102° East 500 575 43,500  Level FlightAware UK
Wed 02:11:07 PM 48.9872 1.0330 103° East 496 571 43,500  Level FlightAware UK
Wed 02:11:25 PM 48.9780 1.0950 103° East 502 578 43,500  Level FlightAware UK
Wed 02:11:56 PM 48.9624 1.1993 103° East 502 578 43,500  Level FlightAware UK
Wed 02:12:14 PM 48.9531 1.2614 103° East 498 573 43,500  Level FlightAware UK
Wed 02:12:32 PM 48.9438 1.3235 103° East 498 573 43,500  Level FlightAware UK
Wed 02:12:50 PM 48.9345 1.3856 103° East 498 573 43,500  Level FlightAware UK
Wed 02:13:08 PM 48.9253 1.4480 103° East 498 573 43,500  Level FlightAware UK
Wed 02:13:26 PM 48.9158 1.5103 103° East 502 578 43,500  Level FlightAware UK
Wed 02:13:44 PM 48.9061 1.5734 103° East 502 578 43,500  Level FlightAware UK
Wed 02:14:02 PM 48.8965 1.6359 103° East 502 578 43,500  Level FlightAware UK
Wed 02:14:20 PM 48.8869 1.6983 103° East 502 578 43,500  Level FlightAware UK
Wed 02:14:38 PM 48.8773 1.7612 103° East 498 573 43,500  Level FlightAware UK
Wed 02:14:56 PM 48.8677 1.8234 103° East 498 573 43,500  Level FlightAware UK
Wed 02:15:14 PM 48.8581 1.8848 103° East 502 578 43,500  Level FlightAware UK
Wed 02:15:32 PM 48.8485 1.9477 103° East 500 575 43,500  Level FlightAware UK
Wed 02:15:50 PM 48.8388 2.0100 103° East 498 573 43,500  Level FlightAware UK
Wed 02:16:08 PM 48.8290 2.0721 104° East 500 575 43,500  Level FlightAware UK
Wed 02:16:26 PM 48.8192 2.1343 103° East 498 573 43,500  Level FlightAware UK
Wed 02:16:44 PM 48.8092 2.1971 104° East 502 578 43,500  Level FlightAware UK
Wed 02:17:02 PM 48.7993 2.2591 104° East 500 575 43,500  Level FlightAware UK
Wed 02:17:20 PM 48.7893 2.3211 104° East 498 573 43,500  Level FlightAware UK
Wed 02:17:38 PM 48.7795 2.3830 104° East 1 1 43,500  Level FlightAware UK
Wed 02:17:56 PM 48.7699 2.4444 103° East 1 1 43,500  Level FlightAware UK
Wed 02:20:00 PM 48.6915 2.8160 108° East  Level FlightAware Approximate
Wed 02:27:00 PM 48.3871 4.1990 108° East  Level FlightAware Approximate
Wed 02:28:00 PM 48.3422 4.3952 109° East  Level FlightAware Approximate
Wed 02:29:00 PM 48.2971 4.5911 109° East  Level FlightAware Approximate
Wed 02:30:00 PM 48.2516 4.7866 109° East  Level FlightAware Approximate
Wed 02:31:00 PM 48.2057 4.9818 109° East  Level FlightAware Approximate
Wed 02:32:00 PM 48.1595 5.1766 109° East  Level FlightAware Approximate
Wed 02:33:00 PM 48.1175 5.3798 107° East  Level FlightAware Approximate
Wed 02:34:00 PM 48.0779 5.5775 107° East  Level FlightAware Approximate
Wed 02:35:00 PM 48.0383 5.7751 107° East  Level FlightAware Approximate
Wed 02:36:00 PM 47.9989 5.9725 107° East  Level FlightAware Approximate
Wed 02:37:00 PM 47.9594 6.1698 107° East  Level FlightAware Approximate
Wed 02:38:00 PM 47.9186 6.3664 107° East  Level FlightAware Approximate
Wed 02:39:00 PM 47.8774 6.5626 107° East  Level FlightAware Approximate
Wed 02:40:00 PM 47.8372 6.7591 107° East  Level FlightAware Approximate
Wed 02:41:00 PM 47.7967 6.9554 107° East  Level FlightAware Approximate
Wed 02:42:00 PM 47.7559 7.1513 107° East  Level FlightAware Approximate
Wed 02:43:00 PM 47.7148 7.3469 107° East  Level FlightAware Approximate
Wed 02:44:00 PM 47.6732 7.5422 108° East  Level FlightAware Approximate
Wed 02:45:00 PM 47.6308 7.7369 108° East  Level FlightAware Approximate
Wed 02:46:00 PM 47.5876 7.9311 108° East  Level FlightAware Approximate
Wed 02:47:00 PM 47.5457 8.1257 108° East  Level FlightAware Approximate
Wed 02:48:00 PM 47.4976 8.3167 102° East  Level FlightAware Approximate
Wed 02:49:00 PM 47.4566 8.5104 113° Southeast  Level FlightAware Approximate
Wed 02:50:00 PM 47.4500 8.5333 113° Southeast  Level FlightAware Approximate
Wed 02:51:00 PM 47.4647 8.5492 113° Southeast  Level Estimated
Wed 02:52:00 PM 47.4647 8.5492 113° Southeast  Level Estimated
Wed 02:53:00 PM 47.4647 8.5492 113° Southeast  Level Estimated
Wed 02:54:00 PM 47.4647 8.5492 113° Southeast  Level Estimated
Wed 02:55:00 PM 47.4647 8.5492 113° Southeast  Level Estimated
Wed 02:56:00 PM 47.4647 8.5492 113° Southeast  Level Estimated
Wed 02:57:00 PM 47.4647 8.5492 113° Southeast  Level Estimated
Wed 02:58:00 PM 47.4647 8.5492 113° Southeast  Level Estimated
Wed 02:59:00 PM 47.4647 8.5492 113° Southeast  Level Estimated
Wed 03:00:00 PM 47.4647 8.5492 113° Southeast  Level Estimated
Wed 03:01:00 PM 47.4647 8.5492 113° Southeast  Level Estimated
Wed 03:02:00 PM 47.4647 8.5492 113° Southeast  Level Estimated
Wed 03:03:00 PM 47.4647 8.5492 113° Southeast  Level Estimated
Wed 03:04:00 PM 47.4647 8.5492 113° Southeast  Level Estimated
Wed 03:05:00 PM 47.4647 8.5492 113° Southeast  Level Estimated
Wed 03:06:00 PM 47.4647 8.5492 113° Southeast  Level Estimated
Wed 03:07:00 PM 47.4647 8.5492 113° Southeast  Level Estimated
Wed 03:08:00 PM 47.4647 8.5492 113° Southeast  Level Estimated
Wed 03:09:00 PM 47.4647 8.5492 113° Southeast  Level Estimated
Wed 03:10:00 PM 47.4647 8.5492 113° Southeast  Level Estimated
Wed 03:11:00 PM 47.4647 8.5492 113° Southeast  Level Estimated
Wed 03:12:00 PM 47.4647 8.5492 113° Southeast  Level Estimated
Wed 03:13:00 PM 47.4647 8.5492 113° Southeast  Level Estimated
Wed 03:14:00 PM 47.4647 8.5492 113° Southeast  Level Estimated

Login

Don't have an account? Register now (free) for customized features, flight alerts, and more!